Cap Isabel — VRGA2 — position and weather

sailwx.info

Track history (hours):
 
Tides and Currents Weather Stations Pressure Air Temp Water Temp Dewpoint Dewpoint Depression Visibility Wind Speed Wind Dir Waves Ship Positions

Cap Isabel

Last reported at 2014-Jul-18 05:22 UTC. Time now 2014-Jul-23 21:48 UTC.
Position N 25°32' W 079°55'.

Length 264 m; draft 10.4 m.

Type: Ship (hazmat cat C). MMSI: 477639500.

Date/timePositionNaut miles runAvg speedWind from/ knotsBaromVisibWave heightAir tempDewpointWater temp
2014-Jul-18 05:22N 25°32' W 079°55'1214.9
2014-Jul-18 04:33N 25°44' W 079°58'1615.7
2014-Jul-18 03:33N 25°59' W 080°02'7 6.8
2014-Jul-18 02:33N 26°05' W 080°07'0 0.3
2014-Jul-18 01:28N 26°04' W 080°07'0 0.0
2014-Jul-18 00:25N 26°04' W 080°07'0 0.0
2014-Jul-17 23:31N 26°04' W 080°07'0 0.0
2014-Jul-17 22:31N 26°04' W 080°07'0 0.0
2014-Jul-17 21:31N 26°04' W 080°07'0 0.0
2014-Jul-17 20:28N 26°04' W 080°07'0 0.0
2014-Jul-17 19:31N 26°04' W 080°07'0 0.0
2014-Jul-17 18:31N 26°04' W 080°07'0 0.0
2014-Jul-17 17:31N 26°04' W 080°07'1 1.3
2014-Jul-17 16:33N 26°06' W 080°07'4 4.0
2014-Jul-17 15:33N 26°07' W 080°03'1616.3
2014-Jul-17 14:33N 26°23' W 079°58'1616.2
2014-Jul-17 13:33N 26°39' W 079°53'1716.7
2014-Jul-17 12:33N 26°55' W 079°53'1817.5
2014-Jul-17 11:32N 27°13' W 079°53'  
2014-Jul-13 14:33N 34°26' W 075°54'1413.5
2014-Jul-13 13:33N 34°34' W 075°41'1312.7
2014-Jul-13 12:33N 34°43' W 075°30'2611.9
2014-Jul-13 10:22N 35°01' W 075°07'7 8.2
2014-Jul-13 09:33N 35°07' W 075°04'5610.8
2014-Jul-13 04:24N 36°03' W 075°03'5210.7
2014-Jul-12 23:32N 36°45' W 075°41'1111.3
2014-Jul-12 22:32N 36°52' W 075°52'1312.6
2014-Jul-12 21:31N 36°58' W 076°06'1110.8
2014-Jul-12 20:27N 36°56' W 076°20'0 0.0
2014-Jul-12 10:15N 36°56' W 076°20'5 7.4
2014-Jul-12 09:34N 37°00' W 076°17'1515.0
2014-Jul-12 08:33N 36°56' W 075°59'1211.5
2014-Jul-12 07:31N 36°50' W 075°46'1211.0
2014-Jul-12 06:27N 36°54' W 075°33'3712.8
2014-Jul-12 03:33N 37°28' W 075°13'1312.9
2014-Jul-12 02:33N 37°38' W 075°04'1312.8
2014-Jul-12 01:33N 37°49' W 074°54'1312.4
2014-Jul-12 00:30N 37°59' W 074°44'4 1.2
2014-Jul-11 21:25N 38°02' W 074°41'112 9.9
2014-Jul-11 10:06N 39°51' W 075°16'6 0.5
2014-Jul-10 23:11N 39°53' W 075°09'6 8.7
2014-Jul-10 22:28N 39°51' W 075°16'4610.6
2014-Jul-10 18:06N 39°05' W 075°11'5010.4
2014-Jul-10 13:15N 39°13' W 074°07'1521.5
2014-Jul-10 12:33N 39°27' W 073°59'2221.5
2014-Jul-10 11:33N 39°48' W 073°52'2121.4
2014-Jul-10 10:33N 40°09' W 073°50'1818.0
2014-Jul-10 09:34N 40°27' W 073°50'1414.0
2014-Jul-10 08:33N 40°37' W 074°03'4 3.8
2014-Jul-10 07:33N 40°40' W 074°05'0 0.0
2014-Jul-10 06:33N 40°40' W 074°05'0 0.0
2014-Jul-10 05:33N 40°40' W 074°05'0 0.0
2014-Jul-10 04:33N 40°40' W 074°05'0 0.0
2014-Jul-10 03:33N 40°40' W 074°05'0 0.0
2014-Jul-10 02:33N 40°40' W 074°05'0 0.0
2014-Jul-10 01:33N 40°40' W 074°05'0 0.0
2014-Jul-10 00:33N 40°40' W 074°05'0 0.0
2014-Jul-09 23:33N 40°40' W 074°05'0 0.0
2014-Jul-09 22:33N 40°40' W 074°05'0 0.0
2014-Jul-09 21:33N 40°40' W 074°05'0 0.0
2014-Jul-09 20:33N 40°40' W 074°05'0 0.0
2014-Jul-09 19:33N 40°40' W 074°05'0 0.0
2014-Jul-09 18:33N 40°40' W 074°05'0 0.0
2014-Jul-09 17:33N 40°40' W 074°05'0 0.0
2014-Jul-09 16:33N 40°40' W 074°05'0 0.0
2014-Jul-09 15:33N 40°40' W 074°05'0 0.0
2014-Jul-09 14:33N 40°40' W 074°05'0 0.0
2014-Jul-09 13:30N 40°40' W 074°05'0 0.0
2014-Jul-09 12:33N 40°40' W 074°05'0 0.0
2014-Jul-09 11:33N 40°40' W 074°05'0 0.0
2014-Jul-09 10:33N 40°40' W 074°05'5 5.3
2014-Jul-09 09:33N 40°36' W 074°02'10 9.7
2014-Jul-09 08:33N 40°29' W 073°53'8 7.9
2014-Jul-09 07:33N 40°22' W 073°47'8 8.0
2014-Jul-09 06:33N 40°14' W 073°45'1312.6
2014-Jul-09 05:33N 40°02' W 073°43'1313.5
2014-Jul-09 04:33N 39°49' W 073°41'1313.4
2014-Jul-09 03:33N 39°37' W 073°31'1313.3
2014-Jul-09 02:33N 39°27' W 073°20'1413.6
2014-Jul-09 01:32N 39°16' W 073°08'1313.5
2014-Jul-09 00:33N 39°06' W 072°57'1413.5
2014-Jul-08 23:33N 38°56' W 072°46'1413.9
2014-Jul-08 22:33N 38°46' W 072°35'1413.6
2014-Jul-08 21:33N 38°35' W 072°23'1313.3
2014-Jul-08 20:33N 38°25' W 072°12'7 7.2
2014-Jul-08 19:33N 38°20' W 072°06'1413.7
2014-Jul-08 18:33N 38°09' W 071°55'1413.7
2014-Jul-08 17:33N 37°59' W 071°44'1414.0
2014-Jul-08 16:34N 37°48' W 071°32'1413.7
2014-Jul-08 15:33N 37°38' W 071°21'  
Track history (hours):
 
Tides and Currents Weather Stations Pressure Air Temp Water Temp Dewpoint Dewpoint Depression Visibility Wind Speed Wind Dir Waves Ship Positions

Cap Isabel

Last reported at 2014-Jul-18 05:22 UTC. Time now 2014-Jul-23 21:48 UTC.
Position N 25°32' W 079°55'.

Length 264 m; draft 10.4 m.

Type: Ship (hazmat cat C). MMSI: 477639500.

Date/timePositionNaut miles runAvg speedWind from/ knotsBaromVisibWave heightAir tempDewpointWater temp
2014-Jul-18 05:22N 25°32' W 079°55'1214.9
2014-Jul-18 04:33N 25°44' W 079°58'1615.7
2014-Jul-18 03:33N 25°59' W 080°02'7 6.8
2014-Jul-18 02:33N 26°05' W 080°07'0 0.3
2014-Jul-18 01:28N 26°04' W 080°07'0 0.0
2014-Jul-18 00:25N 26°04' W 080°07'0 0.0
2014-Jul-17 23:31N 26°04' W 080°07'0 0.0
2014-Jul-17 22:31N 26°04' W 080°07'0 0.0
2014-Jul-17 21:31N 26°04' W 080°07'0 0.0
2014-Jul-17 20:28N 26°04' W 080°07'0 0.0
2014-Jul-17 19:31N 26°04' W 080°07'0 0.0
2014-Jul-17 18:31N 26°04' W 080°07'0 0.0
2014-Jul-17 17:31N 26°04' W 080°07'1 1.3
2014-Jul-17 16:33N 26°06' W 080°07'4 4.0
2014-Jul-17 15:33N 26°07' W 080°03'1616.3
2014-Jul-17 14:33N 26°23' W 079°58'1616.2
2014-Jul-17 13:33N 26°39' W 079°53'1716.7
2014-Jul-17 12:33N 26°55' W 079°53'1817.5
2014-Jul-17 11:32N 27°13' W 079°53'  
2014-Jul-13 14:33N 34°26' W 075°54'1413.5
2014-Jul-13 13:33N 34°34' W 075°41'1312.7
2014-Jul-13 12:33N 34°43' W 075°30'2611.9
2014-Jul-13 10:22N 35°01' W 075°07'7 8.2
2014-Jul-13 09:33N 35°07' W 075°04'5610.8
2014-Jul-13 04:24N 36°03' W 075°03'5210.7
2014-Jul-12 23:32N 36°45' W 075°41'1111.3
2014-Jul-12 22:32N 36°52' W 075°52'1312.6
2014-Jul-12 21:31N 36°58' W 076°06'1110.8
2014-Jul-12 20:27N 36°56' W 076°20'0 0.0
2014-Jul-12 10:15N 36°56' W 076°20'5 7.4
2014-Jul-12 09:34N 37°00' W 076°17'1515.0
2014-Jul-12 08:33N 36°56' W 075°59'1211.5
2014-Jul-12 07:31N 36°50' W 075°46'1211.0
2014-Jul-12 06:27N 36°54' W 075°33'3712.8
2014-Jul-12 03:33N 37°28' W 075°13'1312.9
2014-Jul-12 02:33N 37°38' W 075°04'1312.8
2014-Jul-12 01:33N 37°49' W 074°54'1312.4
2014-Jul-12 00:30N 37°59' W 074°44'4 1.2
2014-Jul-11 21:25N 38°02' W 074°41'112 9.9
2014-Jul-11 10:06N 39°51' W 075°16'6 0.5
2014-Jul-10 23:11N 39°53' W 075°09'6 8.7
2014-Jul-10 22:28N 39°51' W 075°16'4610.6
2014-Jul-10 18:06N 39°05' W 075°11'5010.4
2014-Jul-10 13:15N 39°13' W 074°07'1521.5
2014-Jul-10 12:33N 39°27' W 073°59'2221.5
2014-Jul-10 11:33N 39°48' W 073°52'2121.4
2014-Jul-10 10:33N 40°09' W 073°50'1818.0
2014-Jul-10 09:34N 40°27' W 073°50'1414.0
2014-Jul-10 08:33N 40°37' W 074°03'4 3.8
2014-Jul-10 07:33N 40°40' W 074°05'0 0.0
2014-Jul-10 06:33N 40°40' W 074°05'0 0.0
2014-Jul-10 05:33N 40°40' W 074°05'0 0.0
2014-Jul-10 04:33N 40°40' W 074°05'0 0.0
2014-Jul-10 03:33N 40°40' W 074°05'0 0.0
2014-Jul-10 02:33N 40°40' W 074°05'0 0.0
2014-Jul-10 01:33N 40°40' W 074°05'0 0.0
2014-Jul-10 00:33N 40°40' W 074°05'0 0.0
2014-Jul-09 23:33N 40°40' W 074°05'0 0.0
2014-Jul-09 22:33N 40°40' W 074°05'0 0.0
2014-Jul-09 21:33N 40°40' W 074°05'0 0.0
2014-Jul-09 20:33N 40°40' W 074°05'0 0.0
2014-Jul-09 19:33N 40°40' W 074°05'0 0.0
2014-Jul-09 18:33N 40°40' W 074°05'0 0.0
2014-Jul-09 17:33N 40°40' W 074°05'0 0.0
2014-Jul-09 16:33N 40°40' W 074°05'0 0.0
2014-Jul-09 15:33N 40°40' W 074°05'0 0.0
2014-Jul-09 14:33N 40°40' W 074°05'0 0.0
2014-Jul-09 13:30N 40°40' W 074°05'0 0.0
2014-Jul-09 12:33N 40°40' W 074°05'0 0.0
2014-Jul-09 11:33N 40°40' W 074°05'0 0.0
2014-Jul-09 10:33N 40°40' W 074°05'5 5.3
2014-Jul-09 09:33N 40°36' W 074°02'10 9.7
2014-Jul-09 08:33N 40°29' W 073°53'8 7.9
2014-Jul-09 07:33N 40°22' W 073°47'8 8.0
2014-Jul-09 06:33N 40°14' W 073°45'1312.6
2014-Jul-09 05:33N 40°02' W 073°43'1313.5
2014-Jul-09 04:33N 39°49' W 073°41'1313.4
2014-Jul-09 03:33N 39°37' W 073°31'1313.3
2014-Jul-09 02:33N 39°27' W 073°20'1413.6
2014-Jul-09 01:32N 39°16' W 073°08'1313.5
2014-Jul-09 00:33N 39°06' W 072°57'1413.5
2014-Jul-08 23:33N 38°56' W 072°46'1413.9
2014-Jul-08 22:33N 38°46' W 072°35'1413.6
2014-Jul-08 21:33N 38°35' W 072°23'1313.3
2014-Jul-08 20:33N 38°25' W 072°12'7 7.2
2014-Jul-08 19:33N 38°20' W 072°06'1413.7
2014-Jul-08 18:33N 38°09' W 071°55'1413.7
2014-Jul-08 17:33N 37°59' W 071°44'1414.0
2014-Jul-08 16:34N 37°48' W 071°32'1413.7
2014-Jul-08 15:33N 37°38' W 071°21'  

Dump ship's entire track history